createdAt,value
2023-03-15T06:17:03.653Z,5.67
2023-03-15T06:19:30.598Z,7.93
2023-03-15T06:21:57.558Z,8.40
2023-03-15T06:24:25.311Z,10.13
2023-03-15T06:26:54.882Z,12.77
2023-03-15T06:29:22.168Z,10.27
2023-03-15T06:31:53.032Z,6.60
2023-03-15T06:34:21.250Z,6.90
2023-03-15T06:36:49.713Z,11.77
2023-03-15T06:39:16.583Z,9.60
2023-03-15T06:41:43.392Z,7.47
2023-03-15T06:44:11.016Z,8.07
2023-03-15T06:46:37.958Z,10.87
2023-03-15T06:49:04.818Z,10.20
2023-03-15T06:51:31.697Z,15.50
2023-03-15T06:53:58.550Z,12.50
2023-03-15T06:56:25.513Z,17.97
2023-03-15T06:58:52.319Z,10.40
2023-03-15T07:01:19.166Z,14.47
2023-03-15T07:03:46.014Z,8.63
2023-03-15T07:06:12.822Z,11.03
2023-03-15T07:08:39.709Z,11.40
2023-03-15T07:11:06.630Z,12.33
2023-03-15T07:13:33.623Z,9.03
2023-03-15T07:16:00.963Z,11.27
2023-03-15T07:18:27.974Z,7.30
2023-03-15T07:20:59.189Z,4.50
2023-03-15T07:23:26.252Z,12.27
2023-03-15T07:25:55.616Z,6.17
2023-03-15T07:28:24.048Z,5.93
2023-03-15T07:31:04.427Z,9.07
2023-03-15T07:33:33.223Z,5.17
2023-03-15T07:36:00.336Z,11.67
2023-03-15T07:38:30.876Z,7.67
2023-03-15T07:40:57.993Z,8.87
2023-03-15T07:43:24.955Z,6.77
2023-03-15T07:45:51.792Z,9.50
2023-03-15T07:48:18.866Z,9.37
2023-03-15T07:50:46.007Z,8.53
2023-03-15T07:53:12.841Z,12.97
2023-03-15T07:55:39.664Z,16.30
2023-03-15T07:58:06.429Z,9.03
2023-03-15T08:00:33.564Z,12.30
2023-03-15T08:03:00.573Z,15.63
2023-03-15T08:05:29.129Z,15.47
2023-03-15T08:07:56.858Z,15.27
2023-03-15T08:10:23.881Z,13.03
2023-03-15T08:12:50.954Z,10.17
2023-03-15T08:15:19.206Z,14.27
2023-03-15T08:17:48.089Z,8.60
2023-03-15T08:20:17.908Z,15.73
2023-03-15T08:22:48.473Z,9.57
2023-03-15T08:25:17.050Z,12.50
2023-03-15T08:27:44.323Z,11.50
2023-03-15T08:30:12.972Z,10.87
2023-03-15T08:32:41.379Z,15.20
2023-03-15T08:35:09.146Z,10.40
2023-03-15T08:37:36.270Z,10.77
2023-03-15T08:40:09.141Z,12.87
2023-03-15T08:42:39.332Z,19.10
2023-03-15T08:45:07.679Z,13.83
2023-03-15T08:47:38.033Z,15.97
2023-03-15T08:50:07.240Z,15.80
2023-03-15T08:52:34.164Z,16.97
2023-03-15T08:55:01.322Z,12.40
2023-03-15T08:57:29.125Z,11.43
2023-03-15T08:59:56.465Z,19.50
2023-03-15T09:02:23.672Z,16.70
2023-03-15T09:04:52.464Z,27.30
2023-03-15T09:07:21.933Z,23.83
2023-03-15T09:09:49.276Z,17.93
2023-03-15T09:12:17.160Z,11.23
2023-03-15T09:14:44.720Z,18.80
2023-03-15T09:17:11.893Z,15.67
2023-03-15T09:19:39.577Z,17.37
2023-03-15T09:22:16.837Z,12.00
2023-03-15T09:24:51.767Z,9.87
2023-03-15T09:27:19.123Z,7.37
2023-03-15T09:29:45.973Z,9.43
2023-03-15T09:32:13.592Z,14.17
2023-03-15T09:34:42.307Z,10.60
2023-03-15T09:37:09.999Z,11.80
2023-03-15T09:39:38.005Z,9.97
2023-03-15T09:42:13.990Z,10.33
2023-03-15T09:44:54.813Z,10.00
2023-03-15T09:47:46.926Z,10.00
2023-03-15T09:50:19.317Z,6.87
2023-03-15T09:53:21.367Z,12.57
2023-03-15T09:55:48.975Z,4.93
2023-03-15T09:58:32.819Z,6.20
2023-03-15T10:01:06.216Z,6.90
2023-03-15T10:03:39.889Z,3.10
2023-03-15T10:06:23.047Z,6.40
2023-03-15T10:08:52.404Z,8.57
2023-03-15T10:12:05.476Z,5.80
2023-03-15T10:14:41.510Z,5.27
2023-03-15T10:17:43.063Z,4.50
2023-03-15T10:20:49.779Z,7.93
2023-03-15T10:23:47.717Z,8.27
2023-03-15T10:26:38.743Z,6.50
2023-03-15T10:29:14.697Z,9.30
2023-03-15T10:32:04.256Z,8.27
2023-03-15T10:34:35.950Z,7.53
2023-03-15T10:38:01.303Z,6.60
2023-03-15T10:41:02.960Z,9.00
2023-03-15T10:43:52.587Z,7.80
2023-03-15T10:46:26.967Z,9.70
2023-03-15T10:49:25.274Z,10.30
2023-03-15T10:51:53.238Z,6.50
2023-03-15T10:54:23.495Z,11.23
2023-03-15T10:56:58.492Z,22.00
2023-03-15T10:59:28.294Z,13.07
2023-03-15T11:02:11.862Z,7.90
2023-03-15T11:04:49.490Z,6.43
2023-03-15T11:07:16.745Z,9.53
2023-03-15T11:09:46.097Z,4.93
2023-03-15T11:12:21.980Z,4.80
2023-03-15T11:14:52.029Z,10.47
2023-03-15T11:17:28.419Z,9.07
2023-03-15T11:20:13.118Z,10.77
2023-03-15T11:22:40.495Z,9.13
2023-03-15T11:25:17.598Z,6.57
2023-03-15T11:27:46.928Z,6.47
2023-03-15T11:30:16.314Z,10.13
2023-03-15T11:32:44.147Z,12.47
2023-03-15T11:35:32.645Z,17.37
2023-03-15T11:38:15.758Z,13.47
2023-03-15T11:40:45.313Z,14.13
2023-03-15T11:43:25.365Z,11.57
2023-03-15T11:45:56.845Z,8.40
2023-03-15T11:48:25.905Z,9.53
2023-03-15T11:50:54.437Z,7.67
2023-03-15T11:53:21.893Z,12.87
2023-03-15T11:55:50.812Z,8.97
2023-03-15T11:58:42.705Z,10.30
2023-03-15T12:01:11.543Z,10.17
2023-03-15T12:03:43.457Z,7.93
2023-03-15T12:06:34.305Z,10.33
2023-03-15T12:09:02.001Z,5.07
2023-03-15T12:11:28.759Z,6.53
2023-03-15T12:13:58.361Z,7.87
2023-03-15T12:16:31.310Z,10.50
2023-03-15T12:18:59.327Z,10.30
2023-03-15T12:21:32.786Z,10.00
2023-03-15T12:24:05.702Z,6.90
2023-03-15T12:26:43.295Z,10.97
2023-03-15T12:29:19.708Z,9.20
2023-03-15T12:31:52.970Z,11.00
2023-03-15T12:34:51.513Z,8.00
2023-03-15T12:37:32.472Z,8.13
2023-03-15T12:40:20.422Z,4.00
2023-03-15T12:42:47.296Z,6.47
2023-03-15T12:45:17.124Z,6.57
2023-03-15T12:47:49.924Z,7.33
2023-03-15T12:50:35.445Z,6.30
2023-03-15T12:53:13.170Z,4.87
2023-03-15T12:55:40.564Z,6.27
2023-03-15T12:58:10.895Z,8.13
2023-03-15T13:00:38.642Z,7.23
2023-03-15T13:03:08.371Z,5.10
2023-03-15T13:06:03.294Z,4.27
2023-03-15T13:08:36.390Z,3.33
2023-03-15T13:11:15.683Z,3.53
2023-03-15T13:14:00.123Z,5.83
2023-03-15T13:16:41.013Z,4.87
2023-03-15T13:19:17.751Z,5.67
2023-03-15T13:22:25.745Z,3.43
2023-03-15T13:24:58.020Z,3.17
2023-03-15T13:27:43.791Z,3.03
2023-03-15T13:30:37.500Z,4.40
2023-03-15T13:33:20.140Z,6.07
2023-03-15T13:35:57.617Z,3.27
2023-03-15T13:38:27.948Z,2.60
2023-03-15T13:40:56.130Z,2.13
2023-03-15T13:43:38.837Z,3.30
2023-03-15T13:46:06.083Z,3.47
2023-03-15T13:48:37.985Z,1.73
2023-03-15T13:51:25.965Z,6.63
2023-03-15T13:53:56.955Z,4.37
2023-03-15T13:56:43.545Z,3.20
2023-03-15T13:59:15.694Z,6.83
2023-03-15T14:01:43.287Z,5.23
2023-03-15T14:04:19.357Z,5.93
2023-03-15T14:06:46.989Z,7.17
2023-03-15T14:09:24.748Z,9.03
2023-03-15T14:12:23.284Z,7.73
2023-03-15T14:14:53.907Z,7.07
2023-03-15T14:17:29.888Z,4.37
2023-03-15T14:20:09.327Z,5.07
2023-03-15T14:22:42.460Z,5.73
2023-03-15T14:25:22.581Z,8.20
2023-03-15T14:27:49.490Z,6.90
2023-03-15T14:30:25.059Z,3.47
2023-03-15T14:32:54.725Z,7.87
2023-03-15T14:35:26.654Z,5.47
2023-03-15T14:38:23.804Z,8.27
2023-03-15T14:40:52.128Z,7.83
2023-03-15T14:43:19.447Z,4.43
2023-03-15T14:45:47.820Z,5.70
2023-03-15T14:48:27.374Z,8.03
2023-03-15T14:50:54.929Z,11.43
2023-03-15T14:53:24.555Z,8.87
2023-03-15T14:55:51.434Z,8.67
2023-03-15T14:58:22.930Z,7.37
2023-03-15T15:00:55.660Z,10.57
2023-03-15T15:03:41.137Z,9.80
2023-03-15T15:06:11.873Z,8.53
2023-03-15T15:08:40.257Z,9.63
2023-03-15T15:11:11.043Z,7.33
2023-03-15T15:13:39.127Z,10.10
2023-03-15T15:16:07.483Z,9.70
2023-03-15T15:18:36.989Z,14.73
2023-03-15T15:21:27.627Z,14.27
2023-03-15T15:23:58.880Z,9.27
2023-03-15T15:26:29.147Z,7.57
2023-03-15T15:28:56.918Z,8.47
2023-03-15T15:31:25.487Z,7.60
2023-03-15T15:33:54.079Z,6.63
2023-03-15T15:36:52.275Z,9.33
2023-03-15T15:39:27.751Z,7.70
2023-03-15T15:41:54.700Z,7.53
2023-03-15T15:44:25.097Z,11.40
2023-03-15T15:46:52.441Z,5.90
2023-03-15T15:49:20.063Z,8.00
2023-03-15T15:51:49.970Z,4.03
2023-03-15T15:54:23.321Z,3.10
2023-03-15T15:56:52.622Z,6.67
2023-03-15T15:59:19.845Z,8.27
2023-03-15T16:02:00.148Z,6.73
2023-03-15T16:04:28.531Z,3.90
2023-03-15T16:07:01.872Z,5.10
2023-03-15T16:09:30.594Z,7.40
2023-03-15T16:11:57.482Z,8.47
2023-03-15T16:14:24.295Z,4.60
2023-03-15T16:16:51.212Z,5.07
2023-03-15T16:19:18.095Z,4.43
2023-03-15T16:21:48.029Z,8.03
2023-03-15T16:24:18.697Z,5.40
2023-03-15T16:26:46.169Z,4.47
2023-03-15T16:29:19.151Z,8.03
2023-03-15T16:31:46.877Z,7.47
2023-03-15T16:34:15.855Z,8.30
2023-03-15T16:36:44.120Z,5.90
2023-03-15T16:39:15.033Z,7.97
2023-03-15T16:45:23.108Z,5.87
2023-03-15T16:48:12.276Z,6.33
2023-03-15T16:50:39.922Z,2.93
2023-03-15T16:53:08.908Z,7.20
2023-03-15T16:55:36.291Z,5.47
2023-03-15T16:58:07.614Z,6.97
2023-03-15T17:00:35.304Z,6.10
2023-03-15T17:03:16.987Z,9.13
2023-03-15T17:05:50.836Z,6.80
2023-03-15T17:08:20.417Z,3.80
2023-03-15T17:10:49.934Z,4.37
2023-03-15T17:13:19.662Z,6.70
2023-03-15T17:15:46.486Z,5.20
2023-03-15T17:18:18.448Z,4.77
2023-03-15T17:20:47.545Z,6.27
2023-03-15T17:23:14.565Z,5.73
2023-03-15T17:25:41.595Z,5.47
2023-03-15T17:28:08.632Z,3.47
2023-03-15T17:30:37.184Z,4.20
2023-03-15T17:33:05.175Z,7.50
2023-03-15T17:35:34.613Z,8.03
2023-03-15T17:38:03.273Z,4.17
2023-03-15T17:40:35.207Z,4.47
2023-03-15T17:43:03.540Z,6.23
2023-03-15T17:45:34.684Z,7.17
2023-03-15T17:48:02.065Z,4.83
2023-03-15T17:50:30.993Z,6.53
2023-03-15T17:53:01.890Z,4.77
2023-03-15T17:55:29.884Z,8.33
2023-03-15T17:57:56.788Z,8.60
2023-03-15T18:00:25.257Z,16.00
2023-03-15T18:02:56.590Z,5.83
2023-03-15T18:05:30.353Z,9.20
2023-03-15T18:08:00.062Z,5.60
2023-03-15T18:10:34.078Z,9.47
2023-03-15T18:13:01.132Z,5.43
2023-03-15T18:15:28.136Z,5.47
2023-03-15T18:17:55.004Z,3.33
2023-03-15T18:20:24.385Z,3.33
2023-03-15T18:22:51.707Z,2.37
2023-03-15T18:25:27.050Z,1.87
2023-03-15T18:27:54.120Z,4.27
2023-03-15T18:30:24.135Z,4.93
2023-03-15T18:32:52.158Z,4.47
2023-03-15T18:35:24.758Z,5.30
2023-03-15T18:37:51.775Z,1.97
2023-03-15T18:40:20.547Z,2.03
2023-03-15T18:42:47.481Z,2.93
2023-03-15T18:45:25.440Z,2.70
2023-03-15T18:47:52.421Z,2.57
2023-03-15T18:50:20.369Z,4.03
2023-03-15T18:52:47.553Z,2.07
2023-03-15T18:55:16.575Z,4.70
2023-03-15T18:57:43.550Z,4.47
2023-03-15T19:00:17.161Z,3.17
2023-03-15T19:02:46.179Z,0.90
2023-03-15T19:05:14.259Z,3.13
2023-03-15T19:07:41.677Z,2.47
2023-03-15T19:10:24.920Z,2.77
2023-03-15T19:12:53.297Z,3.07
2023-03-15T19:15:22.750Z,2.60
2023-03-15T19:17:51.709Z,2.73
2023-03-15T19:20:24.852Z,2.67
2023-03-15T19:22:52.747Z,3.70
2023-03-15T19:25:20.203Z,2.37
2023-03-15T19:27:47.027Z,3.60
2023-03-15T19:30:27.704Z,3.80
2023-03-15T19:32:54.960Z,4.27
2023-03-15T19:35:22.105Z,3.20
2023-03-15T19:37:49.088Z,3.03
2023-03-15T19:40:19.952Z,2.87
2023-03-15T19:42:47.076Z,6.40
2023-03-15T19:45:13.986Z,2.97
2023-03-15T19:47:41.155Z,4.03
2023-03-15T19:50:11.622Z,3.47
2023-03-15T19:52:45.850Z,3.97
2023-03-15T19:55:17.604Z,2.67
2023-03-15T19:57:45.048Z,4.60
